sensor_id;sensor_type;location;lat;lon;timestamp;P1;durP1;ratioP1;P2;durP2;ratioP2
47930;SDS011;33697;51.520;9.950;2022-07-22T00:01:46;2.70;;;2.35;;
47930;SDS011;33697;51.520;9.950;2022-07-22T00:04:12;3.17;;;1.98;;
47930;SDS011;33697;51.520;9.950;2022-07-22T00:06:38;3.80;;;3.00;;
47930;SDS011;33697;51.520;9.950;2022-07-22T00:09:05;6.63;;;2.60;;
47930;SDS011;33697;51.520;9.950;2022-07-22T00:11:31;5.03;;;3.10;;
47930;SDS011;33697;51.520;9.950;2022-07-22T00:13:57;5.32;;;3.38;;
47930;SDS011;33697;51.520;9.950;2022-07-22T00:16:24;13.02;;;2.85;;
47930;SDS011;33697;51.520;9.950;2022-07-22T00:18:50;8.05;;;3.53;;
47930;SDS011;33697;51.520;9.950;2022-07-22T00:21:17;5.72;;;3.00;;
47930;SDS011;33697;51.520;9.950;2022-07-22T00:23:43;4.47;;;3.40;;
47930;SDS011;33697;51.520;9.950;2022-07-22T00:26:09;6.57;;;3.40;;
47930;SDS011;33697;51.520;9.950;2022-07-22T00:28:36;5.68;;;2.80;;
47930;SDS011;33697;51.520;9.950;2022-07-22T00:31:02;3.45;;;2.58;;
47930;SDS011;33697;51.520;9.950;2022-07-22T00:33:29;9.82;;;3.88;;
47930;SDS011;33697;51.520;9.950;2022-07-22T00:35:55;5.05;;;2.95;;
47930;SDS011;33697;51.520;9.950;2022-07-22T00:38:22;5.20;;;3.58;;
47930;SDS011;33697;51.520;9.950;2022-07-22T00:40:48;5.63;;;2.97;;
47930;SDS011;33697;51.520;9.950;2022-07-22T00:43:14;7.75;;;2.80;;
47930;SDS011;33697;51.520;9.950;2022-07-22T00:45:41;6.82;;;3.10;;
47930;SDS011;33697;51.520;9.950;2022-07-22T00:48:08;3.15;;;2.28;;
47930;SDS011;33697;51.520;9.950;2022-07-22T00:50:34;6.93;;;3.28;;
47930;SDS011;33697;51.520;9.950;2022-07-22T00:53:01;5.40;;;2.63;;
47930;SDS011;33697;51.520;9.950;2022-07-22T00:55:27;7.75;;;2.45;;
47930;SDS011;33697;51.520;9.950;2022-07-22T00:57:53;5.63;;;2.75;;
47930;SDS011;33697;51.520;9.950;2022-07-22T01:00:20;5.88;;;2.88;;
47930;SDS011;33697;51.520;9.950;2022-07-22T01:02:47;11.27;;;2.78;;
47930;SDS011;33697;51.520;9.950;2022-07-22T01:05:13;7.47;;;2.92;;
47930;SDS011;33697;51.520;9.950;2022-07-22T01:07:40;7.63;;;1.90;;
47930;SDS011;33697;51.520;9.950;2022-07-22T01:10:06;5.05;;;2.13;;
47930;SDS011;33697;51.520;9.950;2022-07-22T01:12:33;5.30;;;2.47;;
47930;SDS011;33697;51.520;9.950;2022-07-22T01:14:59;6.05;;;3.10;;
47930;SDS011;33697;51.520;9.950;2022-07-22T01:17:25;2.00;;;1.40;;
47930;SDS011;33697;51.520;9.950;2022-07-22T01:20:06;3.03;;;2.03;;
47930;SDS011;33697;51.520;9.950;2022-07-22T01:22:32;6.00;;;2.92;;
47930;SDS011;33697;51.520;9.950;2022-07-22T01:24:59;6.53;;;2.00;;
47930;SDS011;33697;51.520;9.950;2022-07-22T01:27:25;4.38;;;2.50;;
47930;SDS011;33697;51.520;9.950;2022-07-22T01:29:52;6.15;;;2.05;;
47930;SDS011;33697;51.520;9.950;2022-07-22T01:32:18;8.95;;;2.63;;
47930;SDS011;33697;51.520;9.950;2022-07-22T01:34:44;4.03;;;2.85;;
47930;SDS011;33697;51.520;9.950;2022-07-22T01:37:11;8.95;;;2.22;;
47930;SDS011;33697;51.520;9.950;2022-07-22T01:39:37;2.53;;;1.15;;
47930;SDS011;33697;51.520;9.950;2022-07-22T01:42:04;2.20;;;1.27;;
47930;SDS011;33697;51.520;9.950;2022-07-22T01:44:31;4.57;;;0.95;;
47930;SDS011;33697;51.520;9.950;2022-07-22T01:46:57;2.45;;;1.05;;
47930;SDS011;33697;51.520;9.950;2022-07-22T01:49:24;1.10;;;0.77;;
47930;SDS011;33697;51.520;9.950;2022-07-22T01:51:51;1.60;;;0.80;;
47930;SDS011;33697;51.520;9.950;2022-07-22T01:54:17;1.95;;;0.60;;
47930;SDS011;33697;51.520;9.950;2022-07-22T01:56:44;5.95;;;0.80;;
47930;SDS011;33697;51.520;9.950;2022-07-22T01:59:10;3.33;;;1.05;;
47930;SDS011;33697;51.520;9.950;2022-07-22T02:01:36;2.55;;;1.33;;
47930;SDS011;33697;51.520;9.950;2022-07-22T02:04:03;4.28;;;0.47;;
47930;SDS011;33697;51.520;9.950;2022-07-22T02:06:29;1.75;;;0.57;;
47930;SDS011;33697;51.520;9.950;2022-07-22T02:08:57;3.97;;;1.13;;
47930;SDS011;33697;51.520;9.950;2022-07-22T02:11:24;0.98;;;0.63;;
47930;SDS011;33697;51.520;9.950;2022-07-22T02:13:50;1.65;;;0.57;;
47930;SDS011;33697;51.520;9.950;2022-07-22T02:16:16;3.45;;;0.70;;
47930;SDS011;33697;51.520;9.950;2022-07-22T02:18:45;2.55;;;0.43;;
47930;SDS011;33697;51.520;9.950;2022-07-22T02:21:11;2.55;;;0.50;;
47930;SDS011;33697;51.520;9.950;2022-07-22T02:23:39;3.38;;;0.52;;
47930;SDS011;33697;51.520;9.950;2022-07-22T02:26:05;3.88;;;1.60;;
47930;SDS011;33697;51.520;9.950;2022-07-22T02:28:31;3.70;;;0.85;;
47930;SDS011;33697;51.520;9.950;2022-07-22T02:30:58;1.60;;;0.30;;
47930;SDS011;33697;51.520;9.950;2022-07-22T02:33:24;1.85;;;0.50;;
47930;SDS011;33697;51.520;9.950;2022-07-22T02:35:50;2.15;;;0.10;;
47930;SDS011;33697;51.520;9.950;2022-07-22T02:38:17;2.83;;;0.35;;
47930;SDS011;33697;51.520;9.950;2022-07-22T02:40:43;2.20;;;0.43;;
47930;SDS011;33697;51.520;9.950;2022-07-22T02:43:09;2.03;;;0.30;;
47930;SDS011;33697;51.520;9.950;2022-07-22T02:45:36;2.17;;;0.30;;
47930;SDS011;33697;51.520;9.950;2022-07-22T02:48:02;2.80;;;0.28;;
47930;SDS011;33697;51.520;9.950;2022-07-22T02:50:28;0.73;;;0.32;;
47930;SDS011;33697;51.520;9.950;2022-07-22T02:52:55;3.13;;;0.35;;
47930;SDS011;33697;51.520;9.950;2022-07-22T02:55:21;1.33;;;0.38;;
47930;SDS011;33697;51.520;9.950;2022-07-22T02:57:48;0.82;;;0.40;;
47930;SDS011;33697;51.520;9.950;2022-07-22T03:00:14;1.25;;;0.43;;
47930;SDS011;33697;51.520;9.950;2022-07-22T03:02:41;1.77;;;0.35;;
47930;SDS011;33697;51.520;9.950;2022-07-22T03:05:08;0.40;;;0.10;;
47930;SDS011;33697;51.520;9.950;2022-07-22T03:07:34;1.33;;;0.20;;
47930;SDS011;33697;51.520;9.950;2022-07-22T03:10:01;0.52;;;0.20;;
47930;SDS011;33697;51.520;9.950;2022-07-22T03:12:28;0.45;;;0.08;;
47930;SDS011;33697;51.520;9.950;2022-07-22T03:14:55;1.42;;;0.73;;
47930;SDS011;33697;51.520;9.950;2022-07-22T03:17:21;5.72;;;1.48;;
47930;SDS011;33697;51.520;9.950;2022-07-22T03:19:48;0.40;;;0.20;;
47930;SDS011;33697;51.520;9.950;2022-07-22T03:22:14;2.35;;;0.55;;
47930;SDS011;33697;51.520;9.950;2022-07-22T03:24:40;2.58;;;0.77;;
47930;SDS011;33697;51.520;9.950;2022-07-22T03:27:07;1.80;;;0.20;;
47930;SDS011;33697;51.520;9.950;2022-07-22T03:29:34;0.30;;;0.10;;
47930;SDS011;33697;51.520;9.950;2022-07-22T03:32:00;1.00;;;0.00;;
47930;SDS011;33697;51.520;9.950;2022-07-22T03:34:26;0.65;;;0.30;;
47930;SDS011;33697;51.520;9.950;2022-07-22T03:36:53;0.93;;;0.10;;
47930;SDS011;33697;51.520;9.950;2022-07-22T03:39:19;3.03;;;0.10;;
47930;SDS011;33697;51.520;9.950;2022-07-22T03:41:45;2.85;;;0.90;;
47930;SDS011;33697;51.520;9.950;2022-07-22T03:44:12;0.38;;;0.10;;
47930;SDS011;33697;51.520;9.950;2022-07-22T03:46:38;2.38;;;0.10;;
47930;SDS011;33697;51.520;9.950;2022-07-22T03:49:04;1.38;;;0.20;;
47930;SDS011;33697;51.520;9.950;2022-07-22T03:51:31;0.80;;;0.20;;
47930;SDS011;33697;51.520;9.950;2022-07-22T03:54:00;1.00;;;0.55;;
47930;SDS011;33697;51.520;9.950;2022-07-22T03:56:26;0.70;;;0.08;;
47930;SDS011;33697;51.520;9.950;2022-07-22T03:58:53;0.40;;;0.03;;
47930;SDS011;33697;51.520;9.950;2022-07-22T04:01:20;0.82;;;0.20;;
47930;SDS011;33697;51.520;9.950;2022-07-22T04:03:46;2.60;;;0.20;;
47930;SDS011;33697;51.520;9.950;2022-07-22T04:06:15;0.30;;;0.10;;
47930;SDS011;33697;51.520;9.950;2022-07-22T04:08:41;3.72;;;0.15;;
47930;SDS011;33697;51.520;9.950;2022-07-22T04:11:07;0.55;;;0.15;;
47930;SDS011;33697;51.520;9.950;2022-07-22T04:13:34;0.65;;;0.05;;
47930;SDS011;33697;51.520;9.950;2022-07-22T04:16:00;0.50;;;0.10;;
47930;SDS011;33697;51.520;9.950;2022-07-22T04:18:27;3.72;;;0.10;;
47930;SDS011;33697;51.520;9.950;2022-07-22T04:20:55;3.70;;;0.20;;
47930;SDS011;33697;51.520;9.950;2022-07-22T04:23:21;0.20;;;0.00;;
47930;SDS011;33697;51.520;9.950;2022-07-22T04:25:48;0.73;;;0.10;;
47930;SDS011;33697;51.520;9.950;2022-07-22T04:28:14;1.30;;;0.10;;
47930;SDS011;33697;51.520;9.950;2022-07-22T04:30:40;1.98;;;0.00;;
47930;SDS011;33697;51.520;9.950;2022-07-22T04:33:07;0.40;;;0.10;;
47930;SDS011;33697;51.520;9.950;2022-07-22T04:35:33;0.10;;;0.00;;
47930;SDS011;33697;51.520;9.950;2022-07-22T04:37:59;0.15;;;0.00;;
47930;SDS011;33697;51.520;9.950;2022-07-22T04:40:26;0.35;;;0.03;;
47930;SDS011;33697;51.520;9.950;2022-07-22T04:42:53;0.00;;;0.00;;
47930;SDS011;33697;51.520;9.950;2022-07-22T04:45:19;0.80;;;0.00;;
47930;SDS011;33697;51.520;9.950;2022-07-22T04:47:45;0.52;;;0.32;;
47930;SDS011;33697;51.520;9.950;2022-07-22T04:50:12;0.85;;;0.00;;
47930;SDS011;33697;51.520;9.950;2022-07-22T04:52:38;1.00;;;0.00;;
47930;SDS011;33697;51.520;9.950;2022-07-22T04:55:05;1.45;;;0.10;;
47930;SDS011;33697;51.520;9.950;2022-07-22T04:57:40;0.13;;;0.00;;
47930;SDS011;33697;51.520;9.950;2022-07-22T05:00:07;0.88;;;0.00;;
47930;SDS011;33697;51.520;9.950;2022-07-22T05:02:33;2.40;;;0.35;;
47930;SDS011;33697;51.520;9.950;2022-07-22T05:04:59;0.65;;;0.00;;
47930;SDS011;33697;51.520;9.950;2022-07-22T05:07:26;2.38;;;0.00;;
47930;SDS011;33697;51.520;9.950;2022-07-22T05:09:53;0.43;;;0.00;;
47930;SDS011;33697;51.520;9.950;2022-07-22T05:12:19;0.40;;;0.00;;
47930;SDS011;33697;51.520;9.950;2022-07-22T05:14:45;1.65;;;0.10;;
47930;SDS011;33697;51.520;9.950;2022-07-22T05:17:12;3.35;;;0.00;;
47930;SDS011;33697;51.520;9.950;2022-07-22T05:19:42;0.60;;;0.10;;
47930;SDS011;33697;51.520;9.950;2022-07-22T05:22:08;1.60;;;0.35;;
47930;SDS011;33697;51.520;9.950;2022-07-22T05:24:35;1.02;;;0.30;;
47930;SDS011;33697;51.520;9.950;2022-07-22T05:27:02;0.57;;;0.15;;
47930;SDS011;33697;51.520;9.950;2022-07-22T05:29:28;1.35;;;0.40;;
47930;SDS011;33697;51.520;9.950;2022-07-22T05:31:55;0.65;;;0.10;;
47930;SDS011;33697;51.520;9.950;2022-07-22T05:34:21;1.00;;;0.05;;
47930;SDS011;33697;51.520;9.950;2022-07-22T05:36:48;1.45;;;0.20;;
47930;SDS011;33697;51.520;9.950;2022-07-22T05:39:14;1.92;;;0.20;;
47930;SDS011;33697;51.520;9.950;2022-07-22T05:41:40;1.52;;;0.43;;
47930;SDS011;33697;51.520;9.950;2022-07-22T05:44:07;0.70;;;0.32;;
47930;SDS011;33697;51.520;9.950;2022-07-22T05:46:33;0.88;;;0.20;;
47930;SDS011;33697;51.520;9.950;2022-07-22T05:49:00;2.30;;;0.30;;
47930;SDS011;33697;51.520;9.950;2022-07-22T05:51:26;0.80;;;0.28;;
47930;SDS011;33697;51.520;9.950;2022-07-22T05:53:52;1.17;;;0.47;;
47930;SDS011;33697;51.520;9.950;2022-07-22T05:56:19;3.17;;;0.30;;
47930;SDS011;33697;51.520;9.950;2022-07-22T05:58:45;3.30;;;0.63;;
47930;SDS011;33697;51.520;9.950;2022-07-22T06:01:12;1.27;;;0.30;;
47930;SDS011;33697;51.520;9.950;2022-07-22T06:03:38;1.42;;;0.10;;
47930;SDS011;33697;51.520;9.950;2022-07-22T06:06:05;0.50;;;0.10;;
47930;SDS011;33697;51.520;9.950;2022-07-22T06:08:35;0.38;;;0.10;;
47930;SDS011;33697;51.520;9.950;2022-07-22T06:11:01;6.78;;;0.68;;
47930;SDS011;33697;51.520;9.950;2022-07-22T06:13:28;0.32;;;0.08;;
47930;SDS011;33697;51.520;9.950;2022-07-22T06:15:54;0.65;;;0.25;;
47930;SDS011;33697;51.520;9.950;2022-07-22T06:18:21;0.93;;;0.30;;
47930;SDS011;33697;51.520;9.950;2022-07-22T06:20:47;3.88;;;0.65;;
47930;SDS011;33697;51.520;9.950;2022-07-22T06:23:13;1.40;;;0.50;;
47930;SDS011;33697;51.520;9.950;2022-07-22T06:25:40;1.63;;;0.38;;
47930;SDS011;33697;51.520;9.950;2022-07-22T06:28:09;19.80;;;4.32;;
47930;SDS011;33697;51.520;9.950;2022-07-22T06:30:36;2.60;;;0.20;;
47930;SDS011;33697;51.520;9.950;2022-07-22T06:33:02;1.50;;;0.30;;
47930;SDS011;33697;51.520;9.950;2022-07-22T06:35:29;0.63;;;0.30;;
47930;SDS011;33697;51.520;9.950;2022-07-22T06:37:55;1.33;;;0.40;;
47930;SDS011;33697;51.520;9.950;2022-07-22T06:40:32;2.30;;;0.80;;
47930;SDS011;33697;51.520;9.950;2022-07-22T06:42:58;1.02;;;0.30;;
47930;SDS011;33697;51.520;9.950;2022-07-22T06:45:25;0.63;;;0.20;;
47930;SDS011;33697;51.520;9.950;2022-07-22T06:47:51;1.02;;;0.10;;
47930;SDS011;33697;51.520;9.950;2022-07-22T06:50:18;0.60;;;0.13;;
47930;SDS011;33697;51.520;9.950;2022-07-22T06:52:44;2.15;;;0.35;;
47930;SDS011;33697;51.520;9.950;2022-07-22T06:55:11;1.23;;;0.05;;
47930;SDS011;33697;51.520;9.950;2022-07-22T06:57:37;1.35;;;0.43;;
47930;SDS011;33697;51.520;9.950;2022-07-22T07:00:04;0.63;;;0.10;;
47930;SDS011;33697;51.520;9.950;2022-07-22T07:02:31;0.50;;;0.17;;
47930;SDS011;33697;51.520;9.950;2022-07-22T07:04:58;1.33;;;0.20;;
47930;SDS011;33697;51.520;9.950;2022-07-22T07:07:24;2.15;;;0.10;;
47930;SDS011;33697;51.520;9.950;2022-07-22T07:09:51;3.42;;;0.20;;
47930;SDS011;33697;51.520;9.950;2022-07-22T07:12:17;1.40;;;0.00;;
47930;SDS011;33697;51.520;9.950;2022-07-22T07:14:45;0.63;;;0.10;;
47930;SDS011;33697;51.520;9.950;2022-07-22T07:17:31;1.48;;;0.10;;
47930;SDS011;33697;51.520;9.950;2022-07-22T07:19:57;0.85;;;0.20;;
47930;SDS011;33697;51.520;9.950;2022-07-22T07:22:24;1.05;;;0.20;;
47930;SDS011;33697;51.520;9.950;2022-07-22T07:24:50;3.30;;;1.00;;
47930;SDS011;33697;51.520;9.950;2022-07-22T07:27:17;0.63;;;0.20;;
47930;SDS011;33697;51.520;9.950;2022-07-22T07:29:43;0.20;;;0.10;;
47930;SDS011;33697;51.520;9.950;2022-07-22T07:32:12;0.40;;;0.08;;
47930;SDS011;33697;51.520;9.950;2022-07-22T07:34:38;0.10;;;0.00;;
47930;SDS011;33697;51.520;9.950;2022-07-22T07:37:04;0.60;;;0.20;;
47930;SDS011;33697;51.520;9.950;2022-07-22T07:39:31;0.47;;;0.10;;
47930;SDS011;33697;51.520;9.950;2022-07-22T07:41:57;0.65;;;0.10;;
47930;SDS011;33697;51.520;9.950;2022-07-22T07:44:23;0.88;;;0.10;;
47930;SDS011;33697;51.520;9.950;2022-07-22T07:46:50;0.80;;;0.32;;
47930;SDS011;33697;51.520;9.950;2022-07-22T07:49:16;0.75;;;0.47;;
47930;SDS011;33697;51.520;9.950;2022-07-22T07:51:42;0.55;;;0.20;;
47930;SDS011;33697;51.520;9.950;2022-07-22T07:54:09;0.47;;;0.00;;
47930;SDS011;33697;51.520;9.950;2022-07-22T07:56:35;0.50;;;0.05;;
47930;SDS011;33697;51.520;9.950;2022-07-22T07:59:02;0.13;;;0.00;;
47930;SDS011;33697;51.520;9.950;2022-07-22T08:01:48;1.10;;;0.40;;
47930;SDS011;33697;51.520;9.950;2022-07-22T08:04:25;3.05;;;0.08;;
47930;SDS011;33697;51.520;9.950;2022-07-22T08:07:05;0.75;;;0.10;;
47930;SDS011;33697;51.520;9.950;2022-07-22T08:09:32;0.85;;;0.40;;
47930;SDS011;33697;51.520;9.950;2022-07-22T08:12:01;2.75;;;0.10;;
47930;SDS011;33697;51.520;9.950;2022-07-22T08:14:27;1.10;;;0.13;;
47930;SDS011;33697;51.520;9.950;2022-07-22T08:16:54;1.55;;;0.10;;
47930;SDS011;33697;51.520;9.950;2022-07-22T08:19:20;0.88;;;0.00;;
47930;SDS011;33697;51.520;9.950;2022-07-22T08:21:47;1.58;;;0.20;;
47930;SDS011;33697;51.520;9.950;2022-07-22T08:24:13;0.30;;;0.00;;
47930;SDS011;33697;51.520;9.950;2022-07-22T08:26:39;0.82;;;0.03;;
47930;SDS011;33697;51.520;9.950;2022-07-22T08:29:06;2.15;;;0.00;;
47930;SDS011;33697;51.520;9.950;2022-07-22T08:31:33;0.38;;;0.00;;
47930;SDS011;33697;51.520;9.950;2022-07-22T08:34:02;0.47;;;0.10;;
47930;SDS011;33697;51.520;9.950;2022-07-22T08:36:29;0.73;;;0.00;;
47930;SDS011;33697;51.520;9.950;2022-07-22T08:38:55;0.50;;;0.10;;
47930;SDS011;33697;51.520;9.950;2022-07-22T08:41:23;1.50;;;0.00;;
47930;SDS011;33697;51.520;9.950;2022-07-22T08:43:50;2.85;;;0.15;;
47930;SDS011;33697;51.520;9.950;2022-07-22T08:46:17;0.98;;;0.05;;
47930;SDS011;33697;51.520;9.950;2022-07-22T08:48:44;1.23;;;0.00;;
47930;SDS011;33697;51.520;9.950;2022-07-22T08:51:11;0.30;;;0.08;;
47930;SDS011;33697;51.520;9.950;2022-07-22T08:53:38;0.82;;;0.30;;
47930;SDS011;33697;51.520;9.950;2022-07-22T08:56:04;2.67;;;0.20;;
47930;SDS011;33697;51.520;9.950;2022-07-22T08:58:31;0.45;;;0.20;;
47930;SDS011;33697;51.520;9.950;2022-07-22T09:01:11;1.55;;;0.20;;
47930;SDS011;33697;51.520;9.950;2022-07-22T09:03:51;2.42;;;0.70;;
47930;SDS011;33697;51.520;9.950;2022-07-22T09:06:19;0.75;;;0.20;;
47930;SDS011;33697;51.520;9.950;2022-07-22T09:08:52;0.95;;;0.20;;
47930;SDS011;33697;51.520;9.950;2022-07-22T09:11:20;1.00;;;0.35;;
47930;SDS011;33697;51.520;9.950;2022-07-22T09:13:47;2.80;;;0.22;;
47930;SDS011;33697;51.520;9.950;2022-07-22T09:16:13;2.35;;;0.30;;
47930;SDS011;33697;51.520;9.950;2022-07-22T09:18:50;2.03;;;0.60;;
47930;SDS011;33697;51.520;9.950;2022-07-22T09:21:17;1.42;;;0.22;;
47930;SDS011;33697;51.520;9.950;2022-07-22T09:23:43;2.40;;;0.17;;
47930;SDS011;33697;51.520;9.950;2022-07-22T09:26:28;2.25;;;0.30;;
47930;SDS011;33697;51.520;9.950;2022-07-22T09:28:55;3.15;;;0.63;;
47930;SDS011;33697;51.520;9.950;2022-07-22T09:31:29;0.75;;;0.30;;
47930;SDS011;33697;51.520;9.950;2022-07-22T09:33:59;2.30;;;0.30;;
47930;SDS011;33697;51.520;9.950;2022-07-22T09:36:25;1.77;;;0.20;;
47930;SDS011;33697;51.520;9.950;2022-07-22T09:38:52;0.50;;;0.10;;
47930;SDS011;33697;51.520;9.950;2022-07-22T09:41:19;1.00;;;0.20;;
47930;SDS011;33697;51.520;9.950;2022-07-22T09:43:46;0.57;;;0.30;;
47930;SDS011;33697;51.520;9.950;2022-07-22T09:46:13;4.57;;;0.38;;
47930;SDS011;33697;51.520;9.950;2022-07-22T09:48:39;1.83;;;0.10;;
47930;SDS011;33697;51.520;9.950;2022-07-22T09:51:06;0.50;;;0.10;;
47930;SDS011;33697;51.520;9.950;2022-07-22T09:53:33;1.33;;;0.10;;
47930;SDS011;33697;51.520;9.950;2022-07-22T09:56:00;0.50;;;0.10;;
47930;SDS011;33697;51.520;9.950;2022-07-22T09:58:27;2.25;;;0.10;;
47930;SDS011;33697;51.520;9.950;2022-07-22T10:00:54;2.78;;;0.00;;
47930;SDS011;33697;51.520;9.950;2022-07-22T10:03:23;1.17;;;0.10;;
47930;SDS011;33697;51.520;9.950;2022-07-22T10:05:51;0.70;;;0.10;;
47930;SDS011;33697;51.520;9.950;2022-07-22T10:08:17;2.83;;;0.30;;
47930;SDS011;33697;51.520;9.950;2022-07-22T10:10:44;0.35;;;0.05;;
47930;SDS011;33697;51.520;9.950;2022-07-22T10:13:10;0.52;;;0.08;;
47930;SDS011;33697;51.520;9.950;2022-07-22T10:15:37;3.50;;;0.13;;
47930;SDS011;33697;51.520;9.950;2022-07-22T10:18:05;0.60;;;0.00;;
47930;SDS011;33697;51.520;9.950;2022-07-22T10:20:33;2.40;;;0.30;;
47930;SDS011;33697;51.520;9.950;2022-07-22T10:23:01;0.43;;;0.03;;
47930;SDS011;33697;51.520;9.950;2022-07-22T10:26:08;0.75;;;0.20;;
47930;SDS011;33697;51.520;9.950;2022-07-22T10:28:28;0.82;;;0.30;;
47930;SDS011;33697;51.520;9.950;2022-07-22T10:33:40;2.22;;;0.20;;
47930;SDS011;33697;51.520;9.950;2022-07-22T10:36:06;0.73;;;0.52;;
47930;SDS011;33697;51.520;9.950;2022-07-22T10:38:34;1.67;;;0.20;;
47930;SDS011;33697;51.520;9.950;2022-07-22T10:41:01;0.50;;;0.10;;
47930;SDS011;33697;51.520;9.950;2022-07-22T10:43:29;1.05;;;0.17;;
47930;SDS011;33697;51.520;9.950;2022-07-22T10:45:57;2.95;;;0.20;;
47930;SDS011;33697;51.520;9.950;2022-07-22T10:53:52;0.88;;;0.20;;
47930;SDS011;33697;51.520;9.950;2022-07-22T10:58:48;3.70;;;0.28;;
47930;SDS011;33697;51.520;9.950;2022-07-22T11:01:15;0.70;;;0.30;;
47930;SDS011;33697;51.520;9.950;2022-07-22T11:03:43;1.60;;;0.40;;
47930;SDS011;33697;51.520;9.950;2022-07-22T11:08:40;1.15;;;0.20;;
47930;SDS011;33697;51.520;9.950;2022-07-22T11:11:06;0.55;;;0.20;;
47930;SDS011;33697;51.520;9.950;2022-07-22T11:13:37;1.80;;;0.28;;
47930;SDS011;33697;51.520;9.950;2022-07-22T11:16:17;0.75;;;0.20;;
47930;SDS011;33697;51.520;9.950;2022-07-22T11:18:45;1.63;;;0.22;;
47930;SDS011;33697;51.520;9.950;2022-07-22T11:21:13;0.88;;;0.38;;
47930;SDS011;33697;51.520;9.950;2022-07-22T11:23:41;3.30;;;0.95;;
47930;SDS011;33697;51.520;9.950;2022-07-22T11:26:08;1.45;;;0.90;;
47930;SDS011;33697;51.520;9.950;2022-07-22T11:28:43;0.88;;;0.70;;
47930;SDS011;33697;51.520;9.950;2022-07-22T11:31:10;1.10;;;0.75;;
47930;SDS011;33697;51.520;9.950;2022-07-22T11:33:36;2.83;;;0.55;;
47930;SDS011;33697;51.520;9.950;2022-07-22T11:36:03;1.05;;;0.68;;
47930;SDS011;33697;51.520;9.950;2022-07-22T11:38:46;3.80;;;0.40;;
47930;SDS011;33697;51.520;9.950;2022-07-22T11:41:18;2.60;;;0.65;;
47930;SDS011;33697;51.520;9.950;2022-07-22T11:43:45;3.20;;;1.33;;
47930;SDS011;33697;51.520;9.950;2022-07-22T11:46:13;1.17;;;0.73;;
47930;SDS011;33697;51.520;9.950;2022-07-22T11:48:40;1.67;;;0.65;;
47930;SDS011;33697;51.520;9.950;2022-07-22T11:51:08;2.85;;;0.63;;
47930;SDS011;33697;51.520;9.950;2022-07-22T11:53:46;1.55;;;1.05;;
47930;SDS011;33697;51.520;9.950;2022-07-22T11:56:12;2.45;;;0.93;;
47930;SDS011;33697;51.520;9.950;2022-07-22T12:01:07;3.10;;;0.75;;
47930;SDS011;33697;51.520;9.950;2022-07-22T12:03:37;2.30;;;0.60;;
47930;SDS011;33697;51.520;9.950;2022-07-22T12:06:05;1.27;;;0.47;;
47930;SDS011;33697;51.520;9.950;2022-07-22T12:08:32;1.70;;;0.75;;
47930;SDS011;33697;51.520;9.950;2022-07-22T12:10:59;3.05;;;0.65;;
47930;SDS011;33697;51.520;9.950;2022-07-22T12:13:29;2.05;;;1.08;;
47930;SDS011;33697;51.520;9.950;2022-07-22T12:16:18;4.40;;;0.70;;
47930;SDS011;33697;51.520;9.950;2022-07-22T12:18:50;3.38;;;1.35;;
47930;SDS011;33697;51.520;9.950;2022-07-22T12:21:17;1.10;;;0.70;;
47930;SDS011;33697;51.520;9.950;2022-07-22T12:23:49;4.15;;;0.88;;
47930;SDS011;33697;51.520;9.950;2022-07-22T12:26:15;3.05;;;0.65;;
47930;SDS011;33697;51.520;9.950;2022-07-22T12:28:42;1.63;;;1.13;;
47930;SDS011;33697;51.520;9.950;2022-07-22T12:31:08;1.95;;;1.10;;
47930;SDS011;33697;51.520;9.950;2022-07-22T12:33:35;2.78;;;1.70;;
47930;SDS011;33697;51.520;9.950;2022-07-22T12:36:05;2.22;;;1.17;;
47930;SDS011;33697;51.520;9.950;2022-07-22T12:38:32;1.85;;;1.15;;
47930;SDS011;33697;51.520;9.950;2022-07-22T12:43:45;1.60;;;1.08;;
47930;SDS011;33697;51.520;9.950;2022-07-22T12:46:12;1.90;;;1.25;;
47930;SDS011;33697;51.520;9.950;2022-07-22T12:48:38;9.85;;;1.40;;
47930;SDS011;33697;51.520;9.950;2022-07-22T12:51:14;4.82;;;1.42;;
47930;SDS011;33697;51.520;9.950;2022-07-22T12:53:40;1.05;;;0.90;;
47930;SDS011;33697;51.520;9.950;2022-07-22T12:56:07;2.72;;;1.63;;
47930;SDS011;33697;51.520;9.950;2022-07-22T13:01:04;1.80;;;0.93;;
47930;SDS011;33697;51.520;9.950;2022-07-22T13:03:30;1.55;;;0.88;;
47930;SDS011;33697;51.520;9.950;2022-07-22T13:06:00;2.97;;;1.27;;
47930;SDS011;33697;51.520;9.950;2022-07-22T13:08:28;3.10;;;1.15;;
47930;SDS011;33697;51.520;9.950;2022-07-22T13:11:09;1.27;;;0.80;;
47930;SDS011;33697;51.520;9.950;2022-07-22T13:13:36;1.88;;;1.13;;
47930;SDS011;33697;51.520;9.950;2022-07-22T13:16:02;6.45;;;2.38;;
47930;SDS011;33697;51.520;9.950;2022-07-22T13:18:29;6.53;;;1.02;;
47930;SDS011;33697;51.520;9.950;2022-07-22T13:20:55;1.35;;;0.60;;
47930;SDS011;33697;51.520;9.950;2022-07-22T13:23:22;2.22;;;1.60;;
47930;SDS011;33697;51.520;9.950;2022-07-22T13:25:48;1.45;;;1.13;;
47930;SDS011;33697;51.520;9.950;2022-07-22T13:28:20;2.67;;;1.25;;
47930;SDS011;33697;51.520;9.950;2022-07-22T13:30:47;0.93;;;0.80;;
47930;SDS011;33697;51.520;9.950;2022-07-22T13:33:13;1.73;;;1.20;;
47930;SDS011;33697;51.520;9.950;2022-07-22T13:35:42;2.03;;;1.77;;
47930;SDS011;33697;51.520;9.950;2022-07-22T13:38:08;1.88;;;1.38;;
47930;SDS011;33697;51.520;9.950;2022-07-22T13:40:41;4.78;;;0.98;;
47930;SDS011;33697;51.520;9.950;2022-07-22T13:43:07;1.88;;;0.95;;
47930;SDS011;33697;51.520;9.950;2022-07-22T13:45:40;4.43;;;1.08;;
47930;SDS011;33697;51.520;9.950;2022-07-22T13:48:06;2.88;;;1.02;;
47930;SDS011;33697;51.520;9.950;2022-07-22T13:50:33;2.15;;;1.48;;
47930;SDS011;33697;51.520;9.950;2022-07-22T13:52:59;1.95;;;1.58;;
47930;SDS011;33697;51.520;9.950;2022-07-22T13:55:26;1.35;;;1.00;;
47930;SDS011;33697;51.520;9.950;2022-07-22T13:57:52;2.58;;;1.02;;
47930;SDS011;33697;51.520;9.950;2022-07-22T14:00:19;1.58;;;1.27;;
47930;SDS011;33697;51.520;9.950;2022-07-22T14:02:45;1.45;;;1.13;;
47930;SDS011;33697;51.520;9.950;2022-07-22T14:05:12;2.42;;;1.40;;
47930;SDS011;33697;51.520;9.950;2022-07-22T14:07:38;2.78;;;2.40;;
47930;SDS011;33697;51.520;9.950;2022-07-22T14:10:05;2.13;;;1.20;;
47930;SDS011;33697;51.520;9.950;2022-07-22T14:12:31;3.70;;;1.85;;
47930;SDS011;33697;51.520;9.950;2022-07-22T14:14:57;1.95;;;1.45;;
47930;SDS011;33697;51.520;9.950;2022-07-22T14:17:29;7.43;;;1.88;;
47930;SDS011;33697;51.520;9.950;2022-07-22T14:19:55;2.17;;;1.77;;
47930;SDS011;33697;51.520;9.950;2022-07-22T14:22:27;3.65;;;1.23;;
47930;SDS011;33697;51.520;9.950;2022-07-22T14:24:53;1.77;;;1.17;;
47930;SDS011;33697;51.520;9.950;2022-07-22T14:27:19;1.80;;;1.00;;
47930;SDS011;33697;51.520;9.950;2022-07-22T14:29:46;2.50;;;1.60;;
47930;SDS011;33697;51.520;9.950;2022-07-22T14:32:12;2.08;;;1.83;;
47930;SDS011;33697;51.520;9.950;2022-07-22T14:34:38;3.40;;;2.03;;
47930;SDS011;33697;51.520;9.950;2022-07-22T14:37:05;2.17;;;1.10;;
47930;SDS011;33697;51.520;9.950;2022-07-22T14:39:31;2.75;;;1.73;;
47930;SDS011;33697;51.520;9.950;2022-07-22T14:41:57;4.82;;;2.05;;
47930;SDS011;33697;51.520;9.950;2022-07-22T14:44:25;2.08;;;1.42;;
47930;SDS011;33697;51.520;9.950;2022-07-22T14:46:51;3.50;;;1.08;;
47930;SDS011;33697;51.520;9.950;2022-07-22T14:49:17;2.13;;;1.23;;
47930;SDS011;33697;51.520;9.950;2022-07-22T14:51:44;2.20;;;1.35;;
47930;SDS011;33697;51.520;9.950;2022-07-22T14:54:11;1.80;;;1.48;;
47930;SDS011;33697;51.520;9.950;2022-07-22T14:56:38;2.25;;;1.52;;
47930;SDS011;33697;51.520;9.950;2022-07-22T14:59:05;3.42;;;1.73;;
47930;SDS011;33697;51.520;9.950;2022-07-22T15:01:31;2.13;;;1.63;;
47930;SDS011;33697;51.520;9.950;2022-07-22T15:03:58;2.83;;;1.40;;
47930;SDS011;33697;51.520;9.950;2022-07-22T15:06:24;2.47;;;1.15;;
47930;SDS011;33697;51.520;9.950;2022-07-22T15:08:51;2.42;;;1.55;;
47930;SDS011;33697;51.520;9.950;2022-07-22T15:11:17;1.83;;;1.40;;